sensor_id;sensor_type;location;lat;lon;timestamp;pressure;altitude;pressure_sealevel;temperature;humidity
35758;BME280;21879;50.110;18.900;2023-04-21T00:08:19;98815.95;;;8.92;59.56
35758;BME280;21879;50.110;18.900;2023-04-21T00:18:45;98815.78;;;8.84;59.44
35758;BME280;21879;50.110;18.900;2023-04-21T00:29:11;98814.75;;;8.75;59.40
35758;BME280;21879;50.110;18.900;2023-04-21T00:39:37;98808.86;;;8.60;59.39
35758;BME280;21879;50.110;18.900;2023-04-21T00:50:03;98807.47;;;8.66;59.64
35758;BME280;21879;50.110;18.900;2023-04-21T01:00:30;98799.33;;;8.60;59.49
35758;BME280;21879;50.110;18.900;2023-04-21T01:10:56;98799.67;;;8.57;59.62
35758;BME280;21879;50.110;18.900;2023-04-21T01:21:22;98798.98;;;8.53;59.36
35758;BME280;21879;50.110;18.900;2023-04-21T01:31:48;98798.27;;;8.39;59.40
35758;BME280;21879;50.110;18.900;2023-04-21T01:42:14;98810.07;;;8.45;59.71
35758;BME280;21879;50.110;18.900;2023-04-21T01:52:40;98800.36;;;8.39;59.66
35758;BME280;21879;50.110;18.900;2023-04-21T02:03:06;98795.63;;;8.19;59.39
35758;BME280;21879;50.110;18.900;2023-04-21T02:13:32;98798.02;;;8.02;59.58
35758;BME280;21879;50.110;18.900;2023-04-21T02:23:57;98798.02;;;8.01;60.08
35758;BME280;21879;50.110;18.900;2023-04-21T02:34:44;98794.39;;;8.03;59.75
35758;BME280;21879;50.110;18.900;2023-04-21T02:45:11;98796.02;;;7.75;59.62
35758;BME280;21879;50.110;18.900;2023-04-21T02:55:37;98802.93;;;7.67;60.20
35758;BME280;21879;50.110;18.900;2023-04-21T03:06:05;98801.52;;;7.62;60.20
35758;BME280;21879;50.110;18.900;2023-04-21T03:16:30;98799.23;;;7.51;60.28
35758;BME280;21879;50.110;18.900;2023-04-21T03:26:57;98801.94;;;7.40;60.07
35758;BME280;21879;50.110;18.900;2023-04-21T03:37:23;98801.50;;;7.56;60.58
35758;BME280;21879;50.110;18.900;2023-04-21T03:47:49;98803.65;;;7.75;60.30
35758;BME280;21879;50.110;18.900;2023-04-21T03:58:17;98804.17;;;7.75;59.87
35758;BME280;21879;50.110;18.900;2023-04-21T04:08:43;98812.98;;;7.68;59.90
35758;BME280;21879;50.110;18.900;2023-04-21T04:19:09;98823.85;;;7.59;60.00
35758;BME280;21879;50.110;18.900;2023-04-21T04:29:35;98835.23;;;7.54;60.21
35758;BME280;21879;50.110;18.900;2023-04-21T04:40:01;98840.23;;;7.49;60.26
35758;BME280;21879;50.110;18.900;2023-04-21T04:50:29;98839.05;;;7.58;60.47
35758;BME280;21879;50.110;18.900;2023-04-21T05:00:55;98845.13;;;7.62;60.75
35758;BME280;21879;50.110;18.900;2023-04-21T05:11:21;98845.02;;;7.75;61.43
35758;BME280;21879;50.110;18.900;2023-04-21T05:21:47;98845.51;;;8.18;62.52
35758;BME280;21879;50.110;18.900;2023-04-21T05:32:13;98842.30;;;8.71;63.02
35758;BME280;21879;50.110;18.900;2023-04-21T05:42:39;98845.34;;;9.43;63.29
35758;BME280;21879;50.110;18.900;2023-04-21T05:53:04;98850.75;;;10.21;63.30
35758;BME280;21879;50.110;18.900;2023-04-21T06:03:32;98847.23;;;11.03;63.54
35758;BME280;21879;50.110;18.900;2023-04-21T06:13:58;98834.95;;;11.92;63.54
35758;BME280;21879;50.110;18.900;2023-04-21T06:24:25;98830.65;;;12.73;62.41
35758;BME280;21879;50.110;18.900;2023-04-21T06:34:58;98833.14;;;13.51;61.27
35758;BME280;21879;50.110;18.900;2023-04-21T06:45:25;98827.60;;;14.25;60.06
35758;BME280;21879;50.110;18.900;2023-04-21T06:55:50;98824.50;;;14.84;58.70
35758;BME280;21879;50.110;18.900;2023-04-21T07:06:17;98825.21;;;15.37;57.41
35758;BME280;21879;50.110;18.900;2023-04-21T07:16:43;98830.31;;;15.82;55.43
35758;BME280;21879;50.110;18.900;2023-04-21T07:27:08;98824.38;;;16.18;53.60
35758;BME280;21879;50.110;18.900;2023-04-21T07:37:34;98818.52;;;16.48;52.98
35758;BME280;21879;50.110;18.900;2023-04-21T07:48:00;98809.14;;;16.78;51.60
35758;BME280;21879;50.110;18.900;2023-04-21T07:58:26;98805.09;;;17.05;50.26
35758;BME280;21879;50.110;18.900;2023-04-21T08:08:52;98800.02;;;17.24;49.07
35758;BME280;21879;50.110;18.900;2023-04-21T08:19:19;98792.44;;;17.10;46.11
35758;BME280;21879;50.110;18.900;2023-04-21T08:29:46;98788.11;;;16.77;45.54
35758;BME280;21879;50.110;18.900;2023-04-21T08:40:32;98785.11;;;17.03;45.49
35758;BME280;21879;50.110;18.900;2023-04-21T08:51:00;98784.22;;;17.14;43.67
35758;BME280;21879;50.110;18.900;2023-04-21T09:01:26;98776.45;;;17.05;43.12
35758;BME280;21879;50.110;18.900;2023-04-21T09:11:56;98765.38;;;17.25;43.25
35758;BME280;21879;50.110;18.900;2023-04-21T09:22:27;98753.77;;;17.40;41.75
35758;BME280;21879;50.110;18.900;2023-04-21T09:32:56;98742.38;;;17.54;41.03
35758;BME280;21879;50.110;18.900;2023-04-21T09:43:22;98737.01;;;17.70;41.05
35758;BME280;21879;50.110;18.900;2023-04-21T09:53:49;98726.56;;;17.44;39.14
35758;BME280;21879;50.110;18.900;2023-04-21T10:04:18;98728.65;;;17.25;38.31
35758;BME280;21879;50.110;18.900;2023-04-21T10:14:45;98733.50;;;17.13;37.57
35758;BME280;21879;50.110;18.900;2023-04-21T10:25:14;98715.16;;;16.99;38.14
35758;BME280;21879;50.110;18.900;2023-04-21T10:36:00;98710.89;;;16.96;37.79
35758;BME280;21879;50.110;18.900;2023-04-21T10:46:33;98709.45;;;16.82;37.26
35758;BME280;21879;50.110;18.900;2023-04-21T10:56:59;98697.29;;;16.98;37.38
35758;BME280;21879;50.110;18.900;2023-04-21T11:07:26;98682.91;;;17.27;37.15
35758;BME280;21879;50.110;18.900;2023-04-21T11:17:52;98680.88;;;17.25;35.85
35758;BME280;21879;50.110;18.900;2023-04-21T11:28:22;98678.54;;;16.97;35.93
35758;BME280;21879;50.110;18.900;2023-04-21T11:38:48;98666.89;;;16.89;35.95
35758;BME280;21879;50.110;18.900;2023-04-21T11:49:14;98659.70;;;17.18;35.82
35758;BME280;21879;50.110;18.900;2023-04-21T11:59:43;98659.30;;;17.24;35.00
35758;BME280;21879;50.110;18.900;2023-04-21T12:10:12;98648.77;;;17.42;35.41
35758;BME280;21879;50.110;18.900;2023-04-21T12:20:37;98632.48;;;17.63;35.63
35758;BME280;21879;50.110;18.900;2023-04-21T12:31:03;98628.98;;;17.81;35.57
35758;BME280;21879;50.110;18.900;2023-04-21T12:41:29;98627.17;;;17.60;33.67
35758;BME280;21879;50.110;18.900;2023-04-21T12:51:55;98619.08;;;17.46;33.61
35758;BME280;21879;50.110;18.900;2023-04-21T13:02:21;98614.44;;;17.61;33.42
35758;BME280;21879;50.110;18.900;2023-04-21T13:12:46;98615.67;;;17.62;33.14
35758;BME280;21879;50.110;18.900;2023-04-21T13:23:13;98608.77;;;17.40;32.85
35758;BME280;21879;50.110;18.900;2023-04-21T13:33:39;98594.81;;;17.46;33.42
35758;BME280;21879;50.110;18.900;2023-04-21T13:44:06;98604.58;;;17.48;33.42
35758;BME280;21879;50.110;18.900;2023-04-21T13:54:32;98588.83;;;17.19;33.25
35758;BME280;21879;50.110;18.900;2023-04-21T14:04:58;98570.89;;;17.25;33.56
35758;BME280;21879;50.110;18.900;2023-04-21T14:15:24;98556.51;;;17.38;33.20
35758;BME280;21879;50.110;18.900;2023-04-21T14:25:50;98554.92;;;17.47;33.28
35758;BME280;21879;50.110;18.900;2023-04-21T14:36:18;98561.74;;;17.29;32.41
35758;BME280;21879;50.110;18.900;2023-04-21T14:46:44;98553.43;;;17.03;32.84
35758;BME280;21879;50.110;18.900;2023-04-21T14:57:29;98538.65;;;17.09;33.58
35758;BME280;21879;50.110;18.900;2023-04-21T15:07:55;98525.92;;;17.20;33.89
35758;BME280;21879;50.110;18.900;2023-04-21T15:18:21;98522.14;;;17.27;33.68
35758;BME280;21879;50.110;18.900;2023-04-21T15:28:46;98519.10;;;17.28;32.69
35758;BME280;21879;50.110;18.900;2023-04-21T15:39:12;98507.42;;;17.21;32.67
35758;BME280;21879;50.110;18.900;2023-04-21T15:49:39;98503.59;;;17.20;32.19
35758;BME280;21879;50.110;18.900;2023-04-21T16:00:06;98496.02;;;17.29;33.15
35758;BME280;21879;50.110;18.900;2023-04-21T16:10:33;98492.86;;;17.33;33.12
35758;BME280;21879;50.110;18.900;2023-04-21T16:21:00;98487.04;;;17.21;32.84
35758;BME280;21879;50.110;18.900;2023-04-21T16:31:25;98483.02;;;17.07;33.21
35758;BME280;21879;50.110;18.900;2023-04-21T16:41:51;98481.42;;;17.03;33.44
35758;BME280;21879;50.110;18.900;2023-04-21T16:52:17;98483.27;;;17.06;33.56
35758;BME280;21879;50.110;18.900;2023-04-21T17:02:43;98482.08;;;17.04;33.44
35758;BME280;21879;50.110;18.900;2023-04-21T17:13:09;98479.19;;;16.98;33.69
35758;BME280;21879;50.110;18.900;2023-04-21T17:23:36;98481.51;;;16.97;33.90
35758;BME280;21879;50.110;18.900;2023-04-21T17:34:01;98484.92;;;16.85;33.60
35758;BME280;21879;50.110;18.900;2023-04-21T17:44:27;98485.15;;;16.69;33.61
35758;BME280;21879;50.110;18.900;2023-04-21T17:54:53;98490.27;;;16.49;33.62
35758;BME280;21879;50.110;18.900;2023-04-21T18:05:19;98500.38;;;16.32;33.63
35758;BME280;21879;50.110;18.900;2023-04-21T18:15:45;98514.59;;;16.08;33.76
35758;BME280;21879;50.110;18.900;2023-04-21T18:26:11;98521.89;;;15.99;34.20
35758;BME280;21879;50.110;18.900;2023-04-21T18:36:37;98521.19;;;15.83;34.63
35758;BME280;21879;50.110;18.900;2023-04-21T18:47:03;98528.91;;;15.56;35.46
35758;BME280;21879;50.110;18.900;2023-04-21T18:57:29;98528.73;;;15.39;36.18
35758;BME280;21879;50.110;18.900;2023-04-21T19:07:55;98524.06;;;15.37;36.50
35758;BME280;21879;50.110;18.900;2023-04-21T19:18:21;98522.09;;;14.99;36.89
35758;BME280;21879;50.110;18.900;2023-04-21T19:28:47;98521.88;;;14.65;38.29
35758;BME280;21879;50.110;18.900;2023-04-21T19:39:13;98524.77;;;14.55;39.85
35758;BME280;21879;50.110;18.900;2023-04-21T19:49:39;98528.00;;;14.32;41.27
35758;BME280;21879;50.110;18.900;2023-04-21T20:00:07;98527.36;;;14.04;42.72
35758;BME280;21879;50.110;18.900;2023-04-21T20:10:35;98532.34;;;13.66;44.38
35758;BME280;21879;50.110;18.900;2023-04-21T20:21:05;98536.87;;;13.30;45.09
35758;BME280;21879;50.110;18.900;2023-04-21T20:31:31;98539.09;;;13.08;45.22
35758;BME280;21879;50.110;18.900;2023-04-21T20:41:57;98546.58;;;12.77;45.45
35758;BME280;21879;50.110;18.900;2023-04-21T20:52:38;98553.55;;;12.60;45.72
35758;BME280;21879;50.110;18.900;2023-04-21T21:03:04;98554.19;;;12.35;46.58
35758;BME280;21879;50.110;18.900;2023-04-21T21:13:33;98557.47;;;11.99;46.37
35758;BME280;21879;50.110;18.900;2023-04-21T21:23:59;98559.17;;;11.47;46.24
35758;BME280;21879;50.110;18.900;2023-04-21T21:34:25;98558.86;;;11.20;46.90
35758;BME280;21879;50.110;18.900;2023-04-21T21:44:51;98565.08;;;10.99;47.72
35758;BME280;21879;50.110;18.900;2023-04-21T21:55:17;98568.89;;;10.87;48.23
35758;BME280;21879;50.110;18.900;2023-04-21T22:05:43;98579.35;;;10.70;49.01
35758;BME280;21879;50.110;18.900;2023-04-21T22:16:09;98579.09;;;10.64;49.40
35758;BME280;21879;50.110;18.900;2023-04-21T22:26:35;98580.73;;;10.57;49.69
35758;BME280;21879;50.110;18.900;2023-04-21T22:37:00;98578.41;;;10.46;49.93
35758;BME280;21879;50.110;18.900;2023-04-21T22:47:28;98572.83;;;10.32;50.34
35758;BME280;21879;50.110;18.900;2023-04-21T22:57:54;98568.09;;;10.15;50.60
35758;BME280;21879;50.110;18.900;2023-04-21T23:08:20;98569.37;;;10.10;50.89
35758;BME280;21879;50.110;18.900;2023-04-21T23:18:46;98576.24;;;10.00;51.17
35758;BME280;21879;50.110;18.900;2023-04-21T23:29:12;98572.07;;;9.81;51.49
35758;BME280;21879;50.110;18.900;2023-04-21T23:39:38;98561.42;;;9.65;51.69
35758;BME280;21879;50.110;18.900;2023-04-21T23:50:04;98557.61;;;9.42;51.63
